sensor_id;sensor_type;location;lat;lon;timestamp;pressure;altitude;pressure_sealevel;temperature;humidity
19150;BME280;9707;49.158;8.632;2024-02-28T00:01:01;100506.34;;;19.51;34.38
19150;BME280;9707;49.158;8.632;2024-02-28T00:03:26;100496.41;;;19.52;34.47
19150;BME280;9707;49.158;8.632;2024-02-28T00:05:51;100501.81;;;19.52;34.14
19150;BME280;9707;49.158;8.632;2024-02-28T00:08:16;100503.63;;;19.51;34.34
19150;BME280;9707;49.158;8.632;2024-02-28T00:10:44;100504.63;;;19.50;34.05
19150;BME280;9707;49.158;8.632;2024-02-28T00:13:09;100506.47;;;19.50;34.15
19150;BME280;9707;49.158;8.632;2024-02-28T00:15:34;100502.91;;;19.49;34.41
19150;BME280;9707;49.158;8.632;2024-02-28T00:18:00;100501.19;;;19.48;34.29
19150;BME280;9707;49.158;8.632;2024-02-28T00:20:25;100505.72;;;19.48;34.18
19150;BME280;9707;49.158;8.632;2024-02-28T00:22:52;100506.59;;;19.48;34.26
19150;BME280;9707;49.158;8.632;2024-02-28T00:25:17;100511.97;;;19.48;34.40
19150;BME280;9707;49.158;8.632;2024-02-28T00:27:42;100505.72;;;19.48;34.58
19150;BME280;9707;49.158;8.632;2024-02-28T00:30:08;100515.53;;;19.49;34.57
19150;BME280;9707;49.158;8.632;2024-02-28T00:32:34;100512.97;;;19.47;34.04
19150;BME280;9707;49.158;8.632;2024-02-28T00:35:02;100521.19;;;19.46;33.90
19150;BME280;9707;49.158;8.632;2024-02-28T00:37:29;100526.59;;;19.46;34.08
19150;BME280;9707;49.158;8.632;2024-02-28T00:39:54;100521.28;;;19.44;34.23
19150;BME280;9707;49.158;8.632;2024-02-28T00:42:19;100513.28;;;19.43;34.26
19150;BME280;9707;49.158;8.632;2024-02-28T00:44:44;100516.84;;;19.43;34.17
19150;BME280;9707;49.158;8.632;2024-02-28T00:47:10;100519.66;;;19.42;34.25
19150;BME280;9707;49.158;8.632;2024-02-28T00:49:35;100527.78;;;19.42;34.02
19150;BME280;9707;49.158;8.632;2024-02-28T00:52:00;100530.56;;;19.40;34.18
19150;BME280;9707;49.158;8.632;2024-02-28T00:54:26;100532.44;;;19.40;34.02
19150;BME280;9707;49.158;8.632;2024-02-28T00:56:51;100529.84;;;19.38;34.13
19150;BME280;9707;49.158;8.632;2024-02-28T00:59:16;100529.06;;;19.36;34.20
19150;BME280;9707;49.158;8.632;2024-02-28T01:01:41;100524.53;;;19.37;34.18
19150;BME280;9707;49.158;8.632;2024-02-28T01:04:07;100520.97;;;19.36;34.25
19150;BME280;9707;49.158;8.632;2024-02-28T01:06:32;100524.53;;;19.37;34.15
19150;BME280;9707;49.158;8.632;2024-02-28T01:08:58;100529.94;;;19.37;34.23
19150;BME280;9707;49.158;8.632;2024-02-28T01:11:23;100532.66;;;19.37;34.05
19150;BME280;9707;49.158;8.632;2024-02-28T01:13:48;100529.94;;;19.37;34.01
19150;BME280;9707;49.158;8.632;2024-02-28T01:16:13;100525.53;;;19.36;34.21
19150;BME280;9707;49.158;8.632;2024-02-28T01:18:39;100522.81;;;19.36;33.71
19150;BME280;9707;49.158;8.632;2024-02-28T01:21:04;100528.22;;;19.36;34.05
19150;BME280;9707;49.158;8.632;2024-02-28T01:23:29;100519.34;;;19.34;34.11
19150;BME280;9707;49.158;8.632;2024-02-28T01:25:55;100530.16;;;19.34;34.03
19150;BME280;9707;49.158;8.632;2024-02-28T01:28:20;100530.28;;;19.32;34.01
19150;BME280;9707;49.158;8.632;2024-02-28T01:30:46;100533.84;;;19.33;34.31
19150;BME280;9707;49.158;8.632;2024-02-28T01:33:11;100530.41;;;19.31;33.99
19150;BME280;9707;49.158;8.632;2024-02-28T01:35:38;100530.41;;;19.31;34.06
19150;BME280;9707;49.158;8.632;2024-02-28T01:38:04;100528.00;;;19.26;33.80
19150;BME280;9707;49.158;8.632;2024-02-28T01:40:29;100528.88;;;19.27;34.08
19150;BME280;9707;49.158;8.632;2024-02-28T01:42:54;100534.19;;;19.28;34.05
19150;BME280;9707;49.158;8.632;2024-02-28T01:45:20;100539.69;;;19.27;33.84
19150;BME280;9707;49.158;8.632;2024-02-28T01:47:45;100543.38;;;19.26;33.96
19150;BME280;9707;49.158;8.632;2024-02-28T01:50:10;100545.28;;;19.24;33.74
19150;BME280;9707;49.158;8.632;2024-02-28T01:52:38;100548.13;;;19.22;33.41
19150;BME280;9707;49.158;8.632;2024-02-28T01:55:05;100551.00;;;19.19;33.35
19150;BME280;9707;49.158;8.632;2024-02-28T01:57:31;100546.78;;;19.15;33.38
19150;BME280;9707;49.158;8.632;2024-02-28T01:59:57;100546.16;;;19.12;33.62
19150;BME280;9707;49.158;8.632;2024-02-28T02:02:23;100548.94;;;19.10;33.74
19150;BME280;9707;49.158;8.632;2024-02-28T02:04:48;100551.75;;;19.09;33.54
19150;BME280;9707;49.158;8.632;2024-02-28T02:07:13;100555.44;;;19.08;33.69
19150;BME280;9707;49.158;8.632;2024-02-28T02:09:39;100563.63;;;19.06;33.59
19150;BME280;9707;49.158;8.632;2024-02-28T02:12:04;100559.31;;;19.04;33.49
19150;BME280;9707;49.158;8.632;2024-02-28T02:14:29;100560.44;;;19.01;33.50
19150;BME280;9707;49.158;8.632;2024-02-28T02:16:55;100569.47;;;19.00;33.53
19150;BME280;9707;49.158;8.632;2024-02-28T02:19:20;100563.22;;;19.00;33.87
19150;BME280;9707;49.158;8.632;2024-02-28T02:21:52;100577.47;;;19.02;33.56
19150;BME280;9707;49.158;8.632;2024-02-28T02:24:18;100570.34;;;19.01;33.67
19150;BME280;9707;49.158;8.632;2024-02-28T02:26:44;100572.06;;;19.02;33.70
19150;BME280;9707;49.158;8.632;2024-02-28T02:29:12;100573.78;;;19.03;33.77
19150;BME280;9707;49.158;8.632;2024-02-28T02:31:37;100569.38;;;19.02;33.47
19150;BME280;9707;49.158;8.632;2024-02-28T02:34:02;100574.78;;;19.02;33.84
19150;BME280;9707;49.158;8.632;2024-02-28T02:36:27;100581.88;;;19.03;33.63
19150;BME280;9707;49.158;8.632;2024-02-28T02:38:53;100581.25;;;18.99;33.43
19150;BME280;9707;49.158;8.632;2024-02-28T02:41:18;100586.00;;;18.96;33.55
19150;BME280;9707;49.158;8.632;2024-02-28T02:43:43;100585.25;;;18.94;33.47
19150;BME280;9707;49.158;8.632;2024-02-28T02:46:09;100592.59;;;18.92;33.66
19150;BME280;9707;49.158;8.632;2024-02-28T02:48:34;100588.91;;;18.93;33.70
19150;BME280;9707;49.158;8.632;2024-02-28T02:50:59;100596.91;;;18.94;33.52
19150;BME280;9707;49.158;8.632;2024-02-28T02:53:24;100601.56;;;18.92;33.63
19150;BME280;9707;49.158;8.632;2024-02-28T02:55:50;100601.66;;;18.91;33.33
19150;BME280;9707;49.158;8.632;2024-02-28T02:58:15;100616.13;;;18.90;33.38
19150;BME280;9707;49.158;8.632;2024-02-28T03:00:40;100610.94;;;18.87;33.50
19150;BME280;9707;49.158;8.632;2024-02-28T03:03:05;100610.94;;;18.87;33.58
19150;BME280;9707;49.158;8.632;2024-02-28T03:05:31;100612.88;;;18.85;33.66
19150;BME280;9707;49.158;8.632;2024-02-28T03:07:56;100628.19;;;18.84;34.04
19150;BME280;9707;49.158;8.632;2024-02-28T03:10:22;100620.19;;;18.83;34.06
19150;BME280;9707;49.158;8.632;2024-02-28T03:12:47;100624.66;;;18.84;33.93
19150;BME280;9707;49.158;8.632;2024-02-28T03:15:12;100627.34;;;18.84;33.95
19150;BME280;9707;49.158;8.632;2024-02-28T03:17:37;100630.81;;;18.86;33.69
19150;BME280;9707;49.158;8.632;2024-02-28T03:20:03;100629.81;;;18.87;33.92
19150;BME280;9707;49.158;8.632;2024-02-28T03:22:28;100618.94;;;18.88;33.93
19150;BME280;9707;49.158;8.632;2024-02-28T03:24:53;100634.16;;;18.89;34.03
19150;BME280;9707;49.158;8.632;2024-02-28T03:27:19;100633.31;;;18.89;33.79
19150;BME280;9707;49.158;8.632;2024-02-28T03:29:44;100630.59;;;18.89;33.78
19150;BME280;9707;49.158;8.632;2024-02-28T03:32:09;100639.66;;;18.88;33.78
19150;BME280;9707;49.158;8.632;2024-02-28T03:34:35;100635.13;;;18.88;33.89
19150;BME280;9707;49.158;8.632;2024-02-28T03:37:00;100633.41;;;18.87;34.11
19150;BME280;9707;49.158;8.632;2024-02-28T03:39:25;100636.00;;;18.89;33.89
19150;BME280;9707;49.158;8.632;2024-02-28T03:41:50;100630.59;;;18.89;33.83
19150;BME280;9707;49.158;8.632;2024-02-28T03:44:16;100642.25;;;18.89;33.78
19150;BME280;9707;49.158;8.632;2024-02-28T03:46:41;100647.75;;;18.88;33.87
19150;BME280;9707;49.158;8.632;2024-02-28T03:49:06;100646.81;;;18.89;33.97
19150;BME280;9707;49.158;8.632;2024-02-28T03:51:31;100641.41;;;18.89;33.90
19150;BME280;9707;49.158;8.632;2024-02-28T03:53:57;100646.81;;;18.89;33.91
19150;BME280;9707;49.158;8.632;2024-02-28T03:56:25;100651.31;;;18.88;33.51
19150;BME280;9707;49.158;8.632;2024-02-28T03:58:51;100646.13;;;18.85;33.67
19150;BME280;9707;49.158;8.632;2024-02-28T04:01:17;100664.06;;;18.86;33.76
19150;BME280;9707;49.158;8.632;2024-02-28T04:03:42;100658.69;;;18.86;34.04
19150;BME280;9707;49.158;8.632;2024-02-28T04:06:07;100664.06;;;18.86;33.67
19150;BME280;9707;49.158;8.632;2024-02-28T04:08:33;100671.19;;;18.87;33.82
19150;BME280;9707;49.158;8.632;2024-02-28T04:10:58;100665.78;;;18.87;33.51
19150;BME280;9707;49.158;8.632;2024-02-28T04:13:23;100666.88;;;18.85;33.42
19150;BME280;9707;49.158;8.632;2024-02-28T04:15:49;100670.53;;;18.84;33.42
19150;BME280;9707;49.158;8.632;2024-02-28T04:18:14;100678.75;;;18.82;33.47
19150;BME280;9707;49.158;8.632;2024-02-28T04:20:39;100682.41;;;18.81;33.36
19150;BME280;9707;49.158;8.632;2024-02-28T04:23:04;100684.34;;;18.79;33.45
19150;BME280;9707;49.158;8.632;2024-02-28T04:25:30;100685.41;;;18.77;33.49
19150;BME280;9707;49.158;8.632;2024-02-28T04:27:55;100688.19;;;18.75;33.39
19150;BME280;9707;49.158;8.632;2024-02-28T04:30:22;100694.66;;;18.73;33.42
19150;BME280;9707;49.158;8.632;2024-02-28T04:32:47;100696.63;;;18.71;33.73
19150;BME280;9707;49.158;8.632;2024-02-28T04:35:12;100702.00;;;18.71;33.76
19150;BME280;9707;49.158;8.632;2024-02-28T04:37:40;100710.84;;;18.73;33.99
19150;BME280;9707;49.158;8.632;2024-02-28T04:40:06;100707.31;;;18.72;33.96
19150;BME280;9707;49.158;8.632;2024-02-28T04:42:31;100710.75;;;18.74;33.93
19150;BME280;9707;49.158;8.632;2024-02-28T04:44:57;100708.94;;;18.75;33.92
19150;BME280;9707;49.158;8.632;2024-02-28T04:47:22;100710.66;;;18.76;34.48
19150;BME280;9707;49.158;8.632;2024-02-28T04:49:48;100710.56;;;18.77;34.25
19150;BME280;9707;49.158;8.632;2024-02-28T04:52:13;100703.31;;;18.78;34.14
19150;BME280;9707;49.158;8.632;2024-02-28T04:54:40;100710.56;;;18.77;33.71
19150;BME280;9707;49.158;8.632;2024-02-28T04:57:05;100715.09;;;18.77;33.52
19150;BME280;9707;49.158;8.632;2024-02-28T04:59:30;100717.88;;;18.75;33.53
19150;BME280;9707;49.158;8.632;2024-02-28T05:01:57;100725.03;;;18.76;33.44
19150;BME280;9707;49.158;8.632;2024-02-28T05:04:22;100727.84;;;18.75;33.53
19150;BME280;9707;49.158;8.632;2024-02-28T05:06:48;100728.81;;;18.74;33.96
19150;BME280;9707;49.158;8.632;2024-02-28T05:09:14;100739.59;;;18.74;34.12
19150;BME280;9707;49.158;8.632;2024-02-28T05:11:39;100736.03;;;18.73;33.77
19150;BME280;9707;49.158;8.632;2024-02-28T05:14:04;100739.69;;;18.72;33.63
19150;BME280;9707;49.158;8.632;2024-02-28T05:16:29;100745.94;;;18.73;34.11
19150;BME280;9707;49.158;8.632;2024-02-28T05:18:54;100750.41;;;18.74;34.00
19150;BME280;9707;49.158;8.632;2024-02-28T05:21:20;100746.81;;;18.73;33.88
19150;BME280;9707;49.158;8.632;2024-02-28T05:23:45;100746.81;;;18.73;33.52
19150;BME280;9707;49.158;8.632;2024-02-28T05:26:10;100750.41;;;18.74;33.38
19150;BME280;9707;49.158;8.632;2024-02-28T05:28:36;100740.66;;;18.71;33.37
19150;BME280;9707;49.158;8.632;2024-02-28T05:33:45;100742.59;;;18.69;33.00
19150;BME280;9707;49.158;8.632;2024-02-28T05:36:10;100750.91;;;18.66;33.09
19150;BME280;9707;49.158;8.632;2024-02-28T05:38:35;100759.00;;;18.66;33.25
19150;BME280;9707;49.158;8.632;2024-02-28T05:41:01;100752.72;;;18.66;33.22
19150;BME280;9707;49.158;8.632;2024-02-28T05:43:26;100750.13;;;18.64;33.10
19150;BME280;9707;49.158;8.632;2024-02-28T05:45:52;100755.63;;;18.63;32.63
19150;BME280;9707;49.158;8.632;2024-02-28T05:48:17;100765.66;;;18.61;32.73
19150;BME280;9707;49.158;8.632;2024-02-28T05:50:43;100766.72;;;18.58;32.52
19150;BME280;9707;49.158;8.632;2024-02-28T05:53:09;100769.72;;;18.54;32.32
19150;BME280;9707;49.158;8.632;2024-02-28T05:55:34;100769.81;;;18.52;32.70
19150;BME280;9707;49.158;8.632;2024-02-28T05:57:59;100769.91;;;18.51;32.97
19150;BME280;9707;49.158;8.632;2024-02-28T06:00:24;100769.03;;;18.50;33.10
19150;BME280;9707;49.158;8.632;2024-02-28T06:02:50;100769.03;;;18.50;33.14
19150;BME280;9707;49.158;8.632;2024-02-28T06:05:15;100771.66;;;18.52;33.23
19150;BME280;9707;49.158;8.632;2024-02-28T06:07:40;100778.75;;;18.53;32.93
19150;BME280;9707;49.158;8.632;2024-02-28T06:10:06;100777.03;;;18.52;32.61
19150;BME280;9707;49.158;8.632;2024-02-28T06:12:31;100779.84;;;18.50;33.02
19150;BME280;9707;49.158;8.632;2024-02-28T06:14:56;100775.31;;;18.51;33.25
19150;BME280;9707;49.158;8.632;2024-02-28T06:17:22;100769.91;;;18.51;33.13
19150;BME280;9707;49.158;8.632;2024-02-28T06:19:47;100775.31;;;18.51;33.52
19150;BME280;9707;49.158;8.632;2024-02-28T06:22:12;100786.00;;;18.52;33.88
19150;BME280;9707;49.158;8.632;2024-02-28T06:24:39;100789.56;;;18.53;33.41
19150;BME280;9707;49.158;8.632;2024-02-28T06:27:04;100798.53;;;18.53;32.71
19150;BME280;9707;49.158;8.632;2024-02-28T06:29:30;100800.66;;;18.48;32.36
19150;BME280;9707;49.158;8.632;2024-02-28T06:31:55;100800.09;;;18.43;31.89
19150;BME280;9707;49.158;8.632;2024-02-28T06:34:21;100804.81;;;18.40;31.71
19150;BME280;9707;49.158;8.632;2024-02-28T06:36:47;100813.19;;;18.35;32.16
19150;BME280;9707;49.158;8.632;2024-02-28T06:39:13;100819.63;;;18.33;32.75
19150;BME280;9707;49.158;8.632;2024-02-28T06:41:38;100819.63;;;18.33;32.99
19150;BME280;9707;49.158;8.632;2024-02-28T06:44:03;100825.03;;;18.33;32.88
19150;BME280;9707;49.158;8.632;2024-02-28T06:46:29;100825.81;;;18.35;33.07
19150;BME280;9707;49.158;8.632;2024-02-28T06:48:54;100820.53;;;18.33;33.21
19150;BME280;9707;49.158;8.632;2024-02-28T06:51:19;100812.34;;;18.35;32.98
19150;BME280;9707;49.158;8.632;2024-02-28T06:53:45;100825.75;;;18.36;33.28
19150;BME280;9707;49.158;8.632;2024-02-28T06:56:10;100830.25;;;18.36;32.92
19150;BME280;9707;49.158;8.632;2024-02-28T06:58:36;100834.75;;;18.35;32.88
19150;BME280;9707;49.158;8.632;2024-02-28T07:01:01;100833.91;;;18.35;33.05
19150;BME280;9707;49.158;8.632;2024-02-28T07:03:26;100839.41;;;18.33;31.96
19150;BME280;9707;49.158;8.632;2024-02-28T07:05:52;100837.81;;;18.29;31.34
19150;BME280;9707;49.158;8.632;2024-02-28T07:08:18;100845.47;;;18.23;31.20
19150;BME280;9707;49.158;8.632;2024-02-28T07:10:44;100859.13;;;18.20;32.44
19150;BME280;9707;49.158;8.632;2024-02-28T07:13:12;100854.69;;;18.19;33.47
19150;BME280;9707;49.158;8.632;2024-02-28T07:15:38;100852.75;;;18.21;34.54
19150;BME280;9707;49.158;8.632;2024-02-28T07:18:05;100859.69;;;18.25;35.07
19150;BME280;9707;49.158;8.632;2024-02-28T07:20:30;100863.81;;;18.30;34.27
19150;BME280;9707;49.158;8.632;2024-02-28T07:22:55;100862.78;;;18.33;34.13
19150;BME280;9707;49.158;8.632;2024-02-28T07:25:20;100858.09;;;18.36;35.09
19150;BME280;9707;49.158;8.632;2024-02-28T07:27:47;100857.78;;;18.41;34.56
19150;BME280;9707;49.158;8.632;2024-02-28T07:30:12;100858.69;;;18.41;33.81
19150;BME280;9707;49.158;8.632;2024-02-28T07:32:38;100869.34;;;18.43;33.78
19150;BME280;9707;49.158;8.632;2024-02-28T07:35:04;100876.50;;;18.44;33.43
19150;BME280;9707;49.158;8.632;2024-02-28T07:37:29;100873.88;;;18.42;32.24
19150;BME280;9707;49.158;8.632;2024-02-28T07:39:54;100873.22;;;18.39;32.59
19150;BME280;9707;49.158;8.632;2024-02-28T07:42:19;100876.00;;;18.37;33.22
19150;BME280;9707;49.158;8.632;2024-02-28T07:44:45;100886.81;;;18.37;33.42
19150;BME280;9707;49.158;8.632;2024-02-28T07:47:10;100887.66;;;18.38;33.85
19150;BME280;9707;49.158;8.632;2024-02-28T07:49:35;100889.41;;;18.39;33.64
19150;BME280;9707;49.158;8.632;2024-02-28T07:52:00;100898.25;;;18.41;33.66
19150;BME280;9707;49.158;8.632;2024-02-28T07:54:26;100890.25;;;18.39;33.12
19150;BME280;9707;49.158;8.632;2024-02-28T07:56:52;100896.53;;;18.40;32.88
19150;BME280;9707;49.158;8.632;2024-02-28T07:59:18;100898.44;;;18.38;32.76
19150;BME280;9707;49.158;8.632;2024-02-28T08:01:43;100896.72;;;18.37;32.54
19150;BME280;9707;49.158;8.632;2024-02-28T08:04:10;100905.78;;;18.36;32.91
19150;BME280;9707;49.158;8.632;2024-02-28T08:06:35;100912.97;;;18.35;32.85
19150;BME280;9707;49.158;8.632;2024-02-28T08:09:00;100904.88;;;18.35;33.42
19150;BME280;9707;49.158;8.632;2024-02-28T08:11:25;100903.94;;;18.36;33.03
19150;BME280;9707;49.158;8.632;2024-02-28T08:13:51;100904.81;;;18.37;33.21
19150;BME280;9707;49.158;8.632;2024-02-28T08:16:17;100901.25;;;18.36;33.04
19150;BME280;9707;49.158;8.632;2024-02-28T08:18:42;100903.00;;;18.37;32.98
19150;BME280;9707;49.158;8.632;2024-02-28T08:21:08;100906.53;;;18.38;33.18
19150;BME280;9707;49.158;8.632;2024-02-28T08:23:34;100904.72;;;18.38;33.25
19150;BME280;9707;49.158;8.632;2024-02-28T08:25:59;100893.03;;;18.38;33.08
19150;BME280;9707;49.158;8.632;2024-02-28T08:28:24;100889.41;;;18.39;32.99
19150;BME280;9707;49.158;8.632;2024-02-28T08:30:49;100894.81;;;18.39;33.10
19150;BME280;9707;49.158;8.632;2024-02-28T08:33:15;100891.13;;;18.40;34.03
19150;BME280;9707;49.158;8.632;2024-02-28T08:39:29;100892.28;;;18.36;32.46
19150;BME280;9707;49.158;8.632;2024-02-28T08:41:55;100902.47;;;18.31;32.39
19150;BME280;9707;49.158;8.632;2024-02-28T08:44:20;100903.44;;;18.30;32.43
19150;BME280;9707;49.158;8.632;2024-02-28T08:46:49;100905.38;;;18.28;32.53
19150;BME280;9707;49.158;8.632;2024-02-28T08:49:14;100909.00;;;18.27;32.64
19150;BME280;9707;49.158;8.632;2024-02-28T08:51:40;100911.81;;;18.25;32.74
19150;BME280;9707;49.158;8.632;2024-02-28T08:54:06;100913.63;;;18.25;32.51
19150;BME280;9707;49.158;8.632;2024-02-28T09:00:02;100931.84;;;18.21;34.77
19150;BME280;9707;49.158;8.632;2024-02-28T09:02:27;100924.25;;;18.28;35.46
19150;BME280;9707;49.158;8.632;2024-02-28T09:04:52;100923.69;;;18.37;34.94
19150;BME280;9707;49.158;8.632;2024-02-28T09:07:21;100923.28;;;18.43;35.10
19150;BME280;9707;49.158;8.632;2024-02-28T09:13:08;100926.22;;;18.54;34.47
19150;BME280;9707;49.158;8.632;2024-02-28T09:15:35;100923.41;;;18.55;34.58
19150;BME280;9707;49.158;8.632;2024-02-28T09:18:00;100924.09;;;18.59;34.74
19150;BME280;9707;49.158;8.632;2024-02-28T09:20:26;100930.91;;;18.64;34.41
19150;BME280;9707;49.158;8.632;2024-02-28T09:22:51;100926.19;;;18.68;35.01
19150;BME280;9707;49.158;8.632;2024-02-28T09:25:16;100929.59;;;18.71;34.78
19150;BME280;9707;49.158;8.632;2024-02-28T09:27:43;100933.91;;;18.74;34.14
19150;BME280;9707;49.158;8.632;2024-02-28T09:30:09;100934.75;;;18.74;33.90
19150;BME280;9707;49.158;8.632;2024-02-28T09:32:34;100932.84;;;18.76;33.77
19150;BME280;9707;49.158;8.632;2024-02-28T09:34:59;100937.38;;;18.76;33.73
19150;BME280;9707;49.158;8.632;2024-02-28T09:37:25;100941.88;;;18.75;33.61
19150;BME280;9707;49.158;8.632;2024-02-28T09:39:50;100933.91;;;18.74;33.14
19150;BME280;9707;49.158;8.632;2024-02-28T09:42:15;100952.03;;;18.72;33.21
19150;BME280;9707;49.158;8.632;2024-02-28T09:44:42;100946.84;;;18.69;33.18
19150;BME280;9707;49.158;8.632;2024-02-28T09:47:08;100952.41;;;18.66;32.98
19150;BME280;9707;49.158;8.632;2024-02-28T09:49:33;100951.66;;;18.64;33.59
19150;BME280;9707;49.158;8.632;2024-02-28T09:51:59;100956.09;;;18.65;33.58
19150;BME280;9707;49.158;8.632;2024-02-28T09:54:25;100952.41;;;18.66;33.92
19150;BME280;9707;49.158;8.632;2024-02-28T09:56:51;100946.94;;;18.67;33.76
19150;BME280;9707;49.158;8.632;2024-02-28T09:59:18;100944.13;;;18.69;33.62
19150;BME280;9707;49.158;8.632;2024-02-28T10:01:44;100943.91;;;18.72;33.54
19150;BME280;9707;49.158;8.632;2024-02-28T10:04:12;100946.63;;;18.72;33.26
19150;BME280;9707;49.158;8.632;2024-02-28T10:06:39;100952.03;;;18.72;33.09
19150;BME280;9707;49.158;8.632;2024-02-28T10:09:05;100949.41;;;18.70;32.86
19150;BME280;9707;49.158;8.632;2024-02-28T10:11:30;100952.22;;;18.69;33.07
19150;BME280;9707;49.158;8.632;2024-02-28T10:13:55;100958.56;;;18.68;33.25
19150;BME280;9707;49.158;8.632;2024-02-28T10:16:20;100966.66;;;18.68;33.03
19150;BME280;9707;49.158;8.632;2024-02-28T10:18:46;100969.47;;;18.66;32.97
19150;BME280;9707;49.158;8.632;2024-02-28T10:21:12;100967.72;;;18.65;32.96
19150;BME280;9707;49.158;8.632;2024-02-28T10:23:37;100981.34;;;18.64;32.81
19150;BME280;9707;49.158;8.632;2024-02-28T10:26:03;100984.03;;;18.64;33.10
19150;BME280;9707;49.158;8.632;2024-02-28T10:28:28;100990.19;;;18.66;33.33
19150;BME280;9707;49.158;8.632;2024-02-28T10:30:54;101002.53;;;18.70;33.41
19150;BME280;9707;49.158;8.632;2024-02-28T10:33:20;100990.59;;;18.74;33.56
19150;BME280;9707;49.158;8.632;2024-02-28T10:35:45;100993.97;;;18.77;33.27
19150;BME280;9707;49.158;8.632;2024-02-28T10:38:12;100987.50;;;18.80;32.91
19150;BME280;9707;49.158;8.632;2024-02-28T10:40:40;100982.88;;;18.82;32.95
19150;BME280;9707;49.158;8.632;2024-02-28T10:43:09;100983.75;;;18.82;32.87
19150;BME280;9707;49.158;8.632;2024-02-28T10:45:38;100989.06;;;18.84;32.62
19150;BME280;9707;49.158;8.632;2024-02-28T10:48:04;100989.91;;;18.84;32.58
19150;BME280;9707;49.158;8.632;2024-02-28T10:50:29;100985.38;;;18.85;32.84
19150;BME280;9707;49.158;8.632;2024-02-28T10:53:02;100988.00;;;18.86;32.46
19150;BME280;9707;49.158;8.632;2024-02-28T10:55:35;100984.41;;;18.86;32.34
19150;BME280;9707;49.158;8.632;2024-02-28T10:58:08;100988.84;;;18.87;32.46
19150;BME280;9707;49.158;8.632;2024-02-28T11:00:39;100994.25;;;18.87;32.28
19150;BME280;9707;49.158;8.632;2024-02-28T11:03:06;100987.03;;;18.87;32.42
19150;BME280;9707;49.158;8.632;2024-02-28T11:05:39;100991.34;;;18.90;32.30
19150;BME280;9707;49.158;8.632;2024-02-28T11:08:23;100991.44;;;18.88;32.07
19150;BME280;9707;49.158;8.632;2024-02-28T11:11:02;100986.06;;;18.88;32.14
19150;BME280;9707;49.158;8.632;2024-02-28T11:13:29;100992.34;;;18.89;31.92
19150;BME280;9707;49.158;8.632;2024-02-28T11:16:07;100990.47;;;18.89;32.35
19150;BME280;9707;49.158;8.632;2024-02-28T11:18:32;100992.13;;;18.92;32.21
19150;BME280;9707;49.158;8.632;2024-02-28T11:20:58;101001.00;;;18.94;32.43
19150;BME280;9707;49.158;8.632;2024-02-28T11:23:23;100995.38;;;18.97;32.13
19150;BME280;9707;49.158;8.632;2024-02-28T11:25:49;100998.88;;;18.99;31.82
19150;BME280;9707;49.158;8.632;2024-02-28T11:28:15;101000.69;;;18.98;31.71
19150;BME280;9707;49.158;8.632;2024-02-28T11:30:41;101003.41;;;18.98;31.60
19150;BME280;9707;49.158;8.632;2024-02-28T11:33:06;101010.53;;;18.99;31.63
19150;BME280;9707;49.158;8.632;2024-02-28T11:35:34;101004.28;;;18.99;31.76
19150;BME280;9707;49.158;8.632;2024-02-28T11:37:59;100992.50;;;19.00;32.30
19150;BME280;9707;49.158;8.632;2024-02-28T11:40:24;100984.09;;;19.04;32.32
19150;BME280;9707;49.158;8.632;2024-02-28T11:42:59;100985.75;;;19.07;31.98
19150;BME280;9707;49.158;8.632;2024-02-28T11:45:28;100989.19;;;19.09;32.04
19150;BME280;9707;49.158;8.632;2024-02-28T11:47:55;100987.28;;;19.11;32.27
19150;BME280;9707;49.158;8.632;2024-02-28T11:50:20;100980.81;;;19.13;31.87
19150;BME280;9707;49.158;8.632;2024-02-28T11:52:45;100983.44;;;19.15;31.80
19150;BME280;9707;49.158;8.632;2024-02-28T11:55:11;100986.00;;;19.16;31.64
19150;BME280;9707;49.158;8.632;2024-02-28T11:57:39;100976.97;;;19.17;31.51
19150;BME280;9707;49.158;8.632;2024-02-28T12:00:08;100978.69;;;19.18;31.73
19150;BME280;9707;49.158;8.632;2024-02-28T12:02:34;100974.13;;;19.19;31.98
19150;BME280;9707;49.158;8.632;2024-02-28T12:05:02;100978.59;;;19.20;31.73
19150;BME280;9707;49.158;8.632;2024-02-28T12:07:27;100975.78;;;19.21;31.15
19150;BME280;9707;49.158;8.632;2024-02-28T12:09:54;100976.84;;;19.19;30.90
19150;BME280;9707;49.158;8.632;2024-02-28T12:12:19;100969.72;;;19.18;31.03
19150;BME280;9707;49.158;8.632;2024-02-28T12:14:46;100968.94;;;19.16;31.32
19150;BME280;9707;49.158;8.632;2024-02-28T12:17:14;100958.16;;;19.16;31.09
19150;BME280;9707;49.158;8.632;2024-02-28T12:19:39;100951.88;;;19.15;30.96
19150;BME280;9707;49.158;8.632;2024-02-28T12:22:05;100952.75;;;19.16;31.39
19150;BME280;9707;49.158;8.632;2024-02-28T12:24:30;100945.50;;;19.16;31.60
19150;BME280;9707;49.158;8.632;2024-02-28T12:26:55;100948.00;;;19.19;31.60
19150;BME280;9707;49.158;8.632;2024-02-28T12:29:20;100944.34;;;19.20;31.31
19150;BME280;9707;49.158;8.632;2024-02-28T12:31:46;100935.19;;;19.23;31.85
19150;BME280;9707;49.158;8.632;2024-02-28T12:34:11;100927.75;;;19.26;31.77
19150;BME280;9707;49.158;8.632;2024-02-28T12:36:38;100926.91;;;19.26;31.51
19150;BME280;9707;49.158;8.632;2024-02-28T12:39:04;100920.44;;;19.28;31.40
19150;BME280;9707;49.158;8.632;2024-02-28T12:41:31;100918.56;;;19.29;31.37
19150;BME280;9707;49.158;8.632;2024-02-28T12:43:56;100920.13;;;19.33;31.65
19150;BME280;9707;49.158;8.632;2024-02-28T12:46:22;100910.09;;;19.35;32.69
19150;BME280;9707;49.158;8.632;2024-02-28T12:48:47;100909.97;;;19.36;31.93
19150;BME280;9707;49.158;8.632;2024-02-28T12:51:42;100909.69;;;19.41;32.30
19150;BME280;9707;49.158;8.632;2024-02-28T12:54:09;100909.44;;;19.44;31.87
19150;BME280;9707;49.158;8.632;2024-02-28T12:56:38;100894.03;;;19.46;31.26
19150;BME280;9707;49.158;8.632;2024-02-28T12:59:05;100896.72;;;19.46;30.83
19150;BME280;9707;49.158;8.632;2024-02-28T13:01:31;100896.72;;;19.46;31.10
19150;BME280;9707;49.158;8.632;2024-02-28T13:03:56;100902.13;;;19.46;31.04
19150;BME280;9707;49.158;8.632;2024-02-28T13:06:22;100895.00;;;19.45;31.54